createdAt,value
2022-12-05T00:01:17.797Z,36.70
2022-12-05T00:03:45.444Z,42.53
2022-12-05T00:06:12.821Z,40.47
2022-12-05T00:08:39.893Z,40.53
2022-12-05T00:11:19.748Z,44.17
2022-12-05T00:13:48.909Z,41.20
2022-12-05T00:16:18.361Z,32.70
2022-12-05T00:18:45.916Z,43.83
2022-12-05T00:21:15.730Z,41.10
2022-12-05T00:23:43.092Z,43.47
2022-12-05T00:26:10.862Z,38.33
2022-12-05T00:28:38.401Z,42.17
2022-12-05T00:31:11.163Z,34.33
2022-12-05T00:33:38.689Z,44.83
2022-12-05T00:36:11.685Z,36.73
2022-12-05T00:38:39.532Z,33.90
2022-12-05T00:41:09.100Z,35.97
2022-12-05T00:43:36.687Z,42.87
2022-12-05T00:46:10.019Z,39.83
2022-12-05T00:48:37.385Z,33.20
2022-12-05T00:51:06.832Z,39.83
2022-12-05T00:53:33.926Z,37.73
2022-12-05T00:56:13.019Z,36.43
2022-12-05T00:58:40.372Z,37.27
2022-12-05T01:01:07.584Z,35.67
2022-12-05T01:03:35.044Z,30.60
2022-12-05T01:06:02.434Z,32.77
2022-12-05T01:08:29.618Z,35.40
2022-12-05T01:10:57.771Z,34.30
2022-12-05T01:13:25.919Z,31.23
2022-12-05T01:15:53.423Z,30.40
2022-12-05T01:18:21.843Z,29.27
2022-12-05T01:20:49.278Z,29.30
2022-12-05T01:23:16.882Z,29.90
2022-12-05T01:25:46.299Z,35.57
2022-12-05T01:28:14.112Z,41.80
2022-12-05T01:30:43.692Z,27.07
2022-12-05T01:33:11.098Z,34.50
2022-12-05T01:35:40.155Z,33.20
2022-12-05T01:38:08.258Z,30.30
2022-12-05T01:40:38.557Z,30.27
2022-12-05T01:43:13.813Z,35.13
2022-12-05T01:45:43.742Z,33.97
2022-12-05T01:48:19.908Z,36.47
2022-12-05T01:50:48.742Z,33.50
2022-12-05T01:53:17.741Z,33.10
2022-12-05T01:55:47.363Z,30.90
2022-12-05T01:58:15.251Z,36.27
2022-12-05T02:00:43.181Z,35.47
2022-12-05T02:03:16.910Z,34.97
2022-12-05T02:05:46.208Z,34.37
2022-12-05T02:08:13.348Z,33.33
2022-12-05T02:10:52.620Z,30.60
2022-12-05T02:13:34.654Z,34.63
2022-12-05T02:16:01.613Z,39.23
2022-12-05T02:18:51.926Z,37.63
2022-12-05T02:21:56.471Z,31.97
2022-12-05T02:24:51.173Z,31.40
2022-12-05T02:27:32.882Z,37.83
2022-12-05T02:30:12.449Z,31.27
2022-12-05T02:33:07.650Z,33.80
2022-12-05T02:35:49.505Z,34.60
2022-12-05T02:38:20.535Z,30.07
2022-12-05T02:41:08.380Z,43.87
2022-12-05T02:43:59.350Z,31.37
2022-12-05T02:46:29.813Z,43.97
2022-12-05T02:49:03.738Z,31.43
2022-12-05T02:51:38.253Z,34.57
2022-12-05T02:54:10.284Z,34.37
2022-12-05T02:56:38.048Z,30.90
2022-12-05T02:59:05.166Z,30.67
2022-12-05T03:01:33.285Z,28.60
2022-12-05T03:04:04.253Z,43.30
2022-12-05T03:06:34.974Z,37.83
2022-12-05T03:09:25.635Z,36.20
2022-12-05T03:12:08.001Z,37.70
2022-12-05T03:14:44.734Z,45.27
2022-12-05T03:17:16.383Z,39.87
2022-12-05T03:19:49.352Z,37.47
2022-12-05T03:22:28.735Z,34.23
2022-12-05T03:24:59.633Z,36.57
2022-12-05T03:27:26.700Z,39.47
2022-12-05T03:30:07.260Z,39.10
2022-12-05T03:32:55.396Z,31.40
2022-12-05T03:35:49.952Z,35.03
2022-12-05T03:38:51.800Z,37.67
2022-12-05T03:41:46.229Z,37.17
2022-12-05T03:44:19.540Z,36.40
2022-12-05T03:47:05.779Z,37.40
2022-12-05T03:49:47.931Z,40.03
2022-12-05T03:52:21.620Z,42.93
2022-12-05T03:54:54.087Z,42.43
2022-12-05T03:57:53.854Z,35.53
2022-12-05T04:00:23.574Z,45.03
2022-12-05T04:02:50.558Z,38.27
2022-12-05T04:05:21.293Z,38.07
2022-12-05T04:07:54.457Z,40.43
2022-12-05T04:10:27.970Z,42.97
2022-12-05T04:12:58.846Z,42.07
2022-12-05T04:15:51.307Z,43.03
2022-12-05T04:18:21.253Z,43.30
2022-12-05T04:21:07.804Z,40.03
2022-12-05T04:23:35.962Z,39.07
2022-12-05T04:26:24.154Z,46.07
2022-12-05T04:28:58.204Z,47.47
2022-12-05T04:31:30.435Z,47.47
2022-12-05T04:34:02.778Z,46.67
2022-12-05T04:36:39.145Z,43.43
2022-12-05T04:39:16.252Z,43.07
2022-12-05T04:41:53.524Z,45.87
2022-12-05T04:44:26.070Z,33.43
2022-12-05T04:46:56.057Z,47.17
2022-12-05T04:49:26.723Z,37.50
2022-12-05T04:51:57.603Z,42.40
2022-12-05T04:54:32.291Z,39.83
2022-12-05T04:57:12.269Z,42.60
2022-12-05T04:59:39.396Z,38.77
2022-12-05T05:02:12.960Z,47.67
2022-12-05T05:04:45.442Z,46.17
2022-12-05T05:07:13.876Z,45.90
2022-12-05T05:09:41.482Z,54.87
2022-12-05T05:12:08.785Z,47.57
2022-12-05T05:14:36.255Z,41.13
2022-12-05T05:17:03.647Z,48.10
2022-12-05T05:19:30.923Z,46.00
2022-12-05T05:21:58.099Z,43.07
2022-12-05T05:24:26.421Z,45.80
2022-12-05T05:26:57.306Z,42.57
2022-12-05T05:29:24.990Z,44.17
2022-12-05T05:31:52.040Z,50.20
2022-12-05T05:34:19.072Z,45.00
2022-12-05T05:36:46.126Z,41.40
2022-12-05T05:39:15.456Z,43.87
2022-12-05T05:41:43.245Z,42.03
2022-12-05T05:44:10.881Z,42.70
2022-12-05T05:46:38.659Z,47.03
2022-12-05T05:49:06.401Z,44.07
2022-12-05T05:51:33.645Z,42.17
2022-12-05T05:54:01.015Z,49.57
2022-12-05T05:56:29.197Z,52.27
2022-12-05T05:59:02.503Z,59.40
2022-12-05T06:01:30.235Z,56.47
2022-12-05T06:03:58.319Z,53.87
2022-12-05T06:06:26.055Z,52.83
2022-12-05T06:08:54.814Z,55.87
2022-12-05T06:11:27.795Z,59.30
2022-12-05T06:13:55.792Z,70.90
2022-12-05T06:16:23.496Z,56.87
2022-12-05T06:18:51.597Z,56.07
2022-12-05T06:21:18.761Z,78.50
2022-12-05T06:23:46.230Z,61.30
2022-12-05T06:26:16.335Z,77.23
2022-12-05T06:28:44.509Z,107.93
2022-12-05T06:31:15.416Z,68.13
2022-12-05T06:33:42.716Z,80.07
2022-12-05T06:36:12.848Z,94.77
2022-12-05T06:38:42.268Z,74.00
2022-12-05T06:41:18.682Z,80.97
2022-12-05T06:43:45.998Z,113.40
2022-12-05T06:46:14.491Z,276.13
2022-12-05T06:48:41.567Z,110.37
2022-12-05T06:51:14.093Z,61.23
2022-12-05T06:53:41.912Z,75.80
2022-12-05T06:56:12.619Z,87.63
2022-12-05T06:58:44.400Z,91.10
2022-12-05T07:01:38.751Z,88.83
2022-12-05T07:04:17.426Z,130.47
2022-12-05T07:06:50.136Z,112.83
2022-12-05T07:09:19.633Z,151.70
2022-12-05T07:11:49.161Z,80.40
2022-12-05T07:14:38.803Z,83.50
2022-12-05T07:17:03.659Z,110.53
2022-12-05T07:19:30.750Z,83.63
2022-12-05T07:21:57.833Z,80.97
2022-12-05T07:24:24.881Z,101.63
2022-12-05T07:26:51.913Z,123.77
2022-12-05T07:29:19.231Z,100.00
2022-12-05T07:31:46.427Z,344.57
2022-12-05T07:34:13.765Z,117.80
2022-12-05T07:36:40.863Z,122.33
2022-12-05T07:39:07.840Z,133.70
2022-12-05T07:41:35.865Z,166.83
2022-12-05T07:44:08.188Z,153.50
2022-12-05T07:46:35.282Z,109.10
2022-12-05T07:49:02.248Z,122.27
2022-12-05T07:51:29.403Z,121.33
2022-12-05T07:53:58.466Z,99.43
2022-12-05T07:56:25.977Z,68.33
2022-12-05T07:58:53.093Z,222.10
2022-12-05T08:01:24.049Z,125.90
2022-12-05T08:03:53.750Z,184.13
2022-12-05T08:06:24.321Z,155.13
2022-12-05T08:08:51.815Z,237.70
2022-12-05T08:11:21.651Z,179.67
2022-12-05T08:13:49.572Z,146.10
2022-12-05T08:16:21.365Z,105.40
2022-12-05T08:18:49.111Z,100.83
2022-12-05T08:21:18.996Z,118.40
2022-12-05T08:23:46.795Z,142.90
2022-12-05T08:26:16.832Z,137.27
2022-12-05T08:28:44.432Z,113.97
2022-12-05T08:31:16.728Z,126.47
2022-12-05T08:33:44.612Z,119.00
2022-12-05T08:36:13.981Z,95.60
2022-12-05T08:38:41.500Z,72.57
2022-12-05T08:41:11.903Z,97.43
2022-12-05T08:43:39.038Z,96.57
2022-12-05T08:46:06.577Z,170.77
2022-12-05T08:48:35.059Z,95.00
2022-12-05T08:51:09.943Z,89.07
2022-12-05T08:53:43.897Z,65.07
2022-12-05T08:56:12.451Z,78.07
2022-12-05T08:58:39.877Z,71.33
2022-12-05T09:01:12.578Z,91.43
2022-12-05T09:03:46.074Z,70.33
2022-12-05T09:06:25.265Z,67.83
2022-12-05T09:09:02.571Z,76.87
2022-12-05T09:11:31.959Z,70.30
2022-12-05T09:14:00.490Z,79.70
2022-12-05T09:16:37.511Z,64.53
2022-12-05T09:19:12.465Z,85.43
2022-12-05T09:21:39.810Z,63.10
2022-12-05T09:24:06.967Z,72.57
2022-12-05T09:26:34.001Z,67.57
2022-12-05T09:29:02.493Z,61.20
2022-12-05T09:31:30.666Z,57.30
2022-12-05T09:33:58.170Z,59.77
2022-12-05T09:36:30.622Z,51.33
2022-12-05T09:39:02.616Z,66.30
2022-12-05T09:42:08.148Z,81.97
2022-12-05T09:44:50.245Z,54.97
2022-12-05T09:47:29.506Z,51.90
2022-12-05T09:50:17.595Z,84.10
2022-12-05T09:53:05.375Z,67.00
2022-12-05T09:55:45.618Z,38.57
2022-12-05T09:58:33.162Z,45.67
2022-12-05T10:01:08.850Z,35.30
2022-12-05T10:04:02.420Z,40.20
2022-12-05T10:06:47.968Z,39.27
2022-12-05T10:09:26.380Z,39.83
2022-12-05T10:12:17.833Z,38.73
2022-12-05T10:14:47.594Z,42.90
2022-12-05T10:17:28.728Z,35.77
2022-12-05T10:20:00.977Z,31.73
2022-12-05T10:22:52.218Z,34.83
2022-12-05T10:25:22.100Z,36.73
2022-12-05T10:27:56.747Z,44.03
2022-12-05T10:30:36.190Z,38.93
2022-12-05T10:33:21.073Z,47.87
2022-12-05T10:35:54.092Z,49.70
2022-12-05T10:38:26.031Z,44.17
2022-12-05T10:41:01.203Z,41.27
2022-12-05T10:43:31.423Z,36.73
2022-12-05T10:45:59.800Z,35.50
2022-12-05T10:48:28.518Z,44.57
2022-12-05T10:51:01.670Z,39.60
2022-12-05T10:53:45.988Z,33.30
2022-12-05T10:59:21.614Z,34.27
2022-12-05T11:01:51.610Z,34.90
2022-12-05T11:04:41.312Z,35.43
2022-12-05T11:07:23.298Z,43.97
2022-12-05T11:09:50.454Z,35.80
2022-12-05T11:12:20.821Z,39.17
2022-12-05T11:15:17.001Z,37.00
2022-12-05T11:17:44.066Z,34.97
2022-12-05T11:20:20.330Z,33.67
2022-12-05T11:22:50.466Z,30.17
2022-12-05T11:25:30.295Z,34.50
2022-12-05T11:28:20.752Z,33.43
2022-12-05T11:31:02.803Z,29.17
2022-12-05T11:33:35.066Z,27.63
2022-12-05T11:36:20.820Z,30.90
2022-12-05T11:38:48.448Z,30.70
2022-12-05T11:41:52.292Z,20.07
2022-12-05T11:44:57.093Z,28.07
2022-12-05T11:47:42.139Z,25.37
2022-12-05T11:50:16.247Z,26.63
2022-12-05T11:52:56.597Z,29.23
2022-12-05T11:55:34.420Z,26.27
2022-12-05T11:58:21.294Z,21.47
2022-12-05T12:01:07.223Z,24.37
2022-12-05T12:04:07.356Z,24.17
2022-12-05T12:07:03.491Z,28.67
2022-12-05T12:10:08.447Z,20.97
2022-12-05T12:13:17.920Z,22.00
2022-12-05T12:16:22.014Z,20.07
2022-12-05T12:19:36.265Z,20.33
2022-12-05T12:22:15.135Z,27.60
2022-12-05T12:25:06.857Z,25.23
2022-12-05T12:27:58.670Z,32.17
2022-12-05T12:30:47.737Z,22.77
2022-12-05T12:33:26.884Z,27.47
2022-12-05T12:36:09.001Z,21.63
2022-12-05T12:39:10.176Z,23.83
2022-12-05T12:41:49.380Z,29.03
2022-12-05T12:44:19.391Z,23.37
2022-12-05T12:47:01.874Z,26.93
2022-12-05T12:49:31.687Z,24.63
2022-12-05T12:52:04.305Z,25.70
2022-12-05T12:55:02.712Z,24.07
2022-12-05T12:57:52.343Z,24.33
2022-12-05T13:01:01.122Z,27.97
2022-12-05T13:03:39.980Z,22.73
2022-12-05T13:06:32.660Z,26.30
2022-12-05T13:09:05.795Z,23.00
2022-12-05T13:11:38.310Z,22.97
2022-12-05T13:14:12.304Z,24.10
2022-12-05T13:16:45.848Z,25.73
2022-12-05T13:19:53.772Z,26.97
2022-12-05T13:22:24.552Z,20.80
2022-12-05T13:24:53.177Z,22.77
2022-12-05T13:27:28.040Z,22.73
2022-12-05T13:30:02.821Z,21.53
2022-12-05T13:32:34.117Z,24.53
2022-12-05T13:35:42.900Z,22.93
2022-12-05T13:38:52.955Z,23.67
2022-12-05T13:41:38.471Z,23.57
2022-12-05T13:44:12.343Z,23.80
2022-12-05T13:46:42.422Z,26.67
2022-12-05T13:49:45.494Z,26.07
2022-12-05T13:52:20.095Z,25.40
2022-12-05T13:55:12.490Z,24.23
2022-12-05T13:57:39.499Z,23.87
2022-12-05T14:00:10.216Z,27.73
2022-12-05T14:02:43.492Z,27.83
2022-12-05T14:05:19.545Z,25.57
2022-12-05T14:07:49.325Z,21.10
2022-12-05T14:10:28.473Z,21.63
2022-12-05T14:12:59.749Z,23.50
2022-12-05T14:15:35.825Z,22.17
2022-12-05T14:18:20.885Z,20.30
2022-12-05T14:20:54.001Z,21.60
2022-12-05T14:23:51.725Z,22.93
2022-12-05T14:26:32.811Z,27.33
2022-12-05T14:29:25.344Z,22.73
2022-12-05T14:32:04.391Z,23.57
2022-12-05T14:34:35.162Z,22.17
2022-12-05T14:37:20.735Z,29.43
2022-12-05T14:39:52.453Z,20.50
2022-12-05T14:42:27.730Z,27.77
2022-12-05T14:44:58.319Z,28.63
2022-12-05T14:47:34.336Z,26.83
2022-12-05T14:50:23.683Z,27.70
2022-12-05T14:53:15.793Z,26.93
2022-12-05T14:55:47.744Z,26.67
2022-12-05T14:58:22.645Z,26.13
2022-12-05T15:01:07.005Z,24.87
2022-12-05T15:03:39.680Z,26.37
2022-12-05T15:06:15.595Z,29.43
2022-12-05T15:08:51.424Z,30.27
2022-12-05T15:11:30.034Z,33.07
2022-12-05T15:14:09.581Z,34.77
2022-12-05T15:16:42.093Z,35.00
2022-12-05T15:19:48.553Z,27.43
2022-12-05T15:22:17.320Z,32.00
2022-12-05T15:24:44.376Z,27.00
2022-12-05T15:27:12.596Z,24.77
2022-12-05T15:29:41.225Z,29.10
2022-12-05T15:32:11.237Z,33.27
2022-12-05T15:35:17.178Z,28.90
2022-12-05T15:37:53.998Z,32.90
2022-12-05T15:40:26.198Z,35.83
2022-12-05T15:42:57.752Z,31.53
2022-12-05T15:45:27.147Z,31.93
2022-12-05T15:47:56.938Z,29.93
2022-12-05T15:50:42.825Z,33.57
2022-12-05T15:53:18.094Z,29.27
2022-12-05T15:55:54.005Z,33.90
2022-12-05T15:58:27.013Z,37.80
2022-12-05T16:01:17.703Z,36.17
2022-12-05T16:03:47.871Z,33.60
2022-12-05T16:06:56.454Z,35.80
2022-12-05T16:09:28.611Z,40.40
2022-12-05T16:12:01.954Z,36.20
2022-12-05T16:17:25.349Z,37.53
2022-12-05T16:19:52.573Z,39.27
2022-12-05T16:22:23.803Z,40.60
2022-12-05T16:25:01.926Z,38.10
2022-12-05T16:27:36.563Z,37.93
2022-12-05T16:30:23.173Z,40.87
2022-12-05T16:32:58.725Z,42.30
2022-12-05T16:35:43.525Z,38.27
2022-12-05T16:38:32.398Z,45.53
2022-12-05T16:41:06.224Z,41.50
2022-12-05T16:43:33.328Z,41.63
2022-12-05T16:46:14.958Z,37.43
2022-12-05T16:49:03.250Z,40.63
2022-12-05T16:51:41.804Z,40.97
2022-12-05T16:54:09.512Z,35.07
2022-12-05T16:56:36.792Z,32.63
2022-12-05T16:59:05.883Z,32.23
2022-12-05T17:01:38.465Z,28.53
2022-12-05T17:04:05.900Z,33.73
2022-12-05T17:06:33.068Z,31.47
2022-12-05T17:09:00.297Z,32.07
2022-12-05T17:11:30.628Z,30.83
2022-12-05T17:13:58.660Z,32.40
2022-12-05T17:16:28.968Z,30.17
2022-12-05T17:18:56.025Z,29.77
2022-12-05T17:21:26.472Z,32.77
2022-12-05T17:23:53.485Z,32.50
2022-12-05T17:26:21.633Z,35.10
2022-12-05T17:28:49.658Z,37.27
2022-12-05T17:31:20.345Z,39.27
2022-12-05T17:33:49.657Z,43.07
2022-12-05T17:36:17.161Z,44.33
2022-12-05T17:38:45.760Z,39.50
2022-12-05T17:41:30.732Z,42.37
2022-12-05T17:43:57.765Z,40.00
2022-12-05T17:46:24.980Z,36.30
2022-12-05T17:48:53.583Z,34.30
2022-12-05T17:51:22.266Z,31.87
2022-12-05T17:53:49.621Z,32.87
2022-12-05T17:56:16.780Z,31.87
2022-12-05T17:58:43.915Z,32.73
2022-12-05T18:01:19.701Z,33.93
2022-12-05T18:03:48.066Z,37.70
2022-12-05T18:06:15.440Z,35.17
2022-12-05T18:08:44.734Z,30.43
2022-12-05T18:11:14.167Z,30.77
2022-12-05T18:13:41.295Z,30.50
2022-12-05T18:16:08.541Z,28.63
2022-12-05T18:18:35.632Z,28.87
2022-12-05T18:21:07.978Z,33.63
2022-12-05T18:23:36.520Z,38.83
2022-12-05T18:26:05.141Z,34.43
2022-12-05T18:28:36.166Z,34.97
2022-12-05T18:31:08.450Z,33.93
2022-12-05T18:33:38.233Z,38.67
2022-12-05T18:36:10.461Z,31.37
2022-12-05T18:38:38.586Z,43.27
2022-12-05T18:41:07.003Z,49.03
2022-12-05T18:43:34.284Z,46.30
2022-12-05T18:46:03.784Z,42.17
2022-12-05T18:48:39.391Z,42.63
2022-12-05T18:51:08.871Z,46.07
2022-12-05T18:53:35.979Z,45.13
2022-12-05T18:56:22.304Z,47.10
2022-12-05T18:58:54.692Z,47.90
2022-12-05T19:01:21.879Z,47.03
2022-12-05T19:03:50.477Z,42.20
2022-12-05T19:06:20.523Z,45.53
2022-12-05T19:08:48.314Z,48.03
2022-12-05T19:11:18.021Z,45.10
2022-12-05T19:13:45.237Z,50.93
2022-12-05T19:16:19.485Z,44.53
2022-12-05T19:18:47.362Z,46.07
2022-12-05T19:21:14.542Z,42.07
2022-12-05T19:23:41.682Z,44.53
2022-12-05T19:26:10.030Z,41.13
2022-12-05T19:28:38.212Z,37.60
2022-12-05T19:31:26.005Z,33.97
2022-12-05T19:33:56.333Z,34.30
2022-12-05T19:36:26.383Z,30.07
2022-12-05T19:38:54.931Z,35.90
2022-12-05T19:41:27.536Z,32.90
2022-12-05T19:43:56.117Z,35.43
2022-12-05T19:46:26.008Z,33.37
2022-12-05T19:48:55.118Z,32.87
2022-12-05T19:51:22.436Z,32.83
2022-12-05T19:53:49.788Z,34.53
2022-12-05T19:56:22.092Z,29.00
2022-12-05T19:58:50.093Z,29.90
2022-12-05T20:01:23.056Z,28.27
2022-12-05T20:03:55.630Z,28.47
2022-12-05T20:06:24.021Z,29.97
2022-12-05T20:08:52.788Z,27.67
2022-12-05T20:11:29.050Z,25.53
2022-12-05T20:13:58.257Z,31.47
2022-12-05T20:16:27.331Z,31.67
2022-12-05T20:18:58.259Z,27.47
2022-12-05T20:21:27.121Z,30.93
2022-12-05T20:23:54.726Z,26.90
2022-12-05T20:26:25.004Z,29.87
2022-12-05T20:28:52.722Z,26.20
2022-12-05T20:31:23.962Z,26.07
2022-12-05T20:33:53.309Z,27.23
2022-12-05T20:36:23.233Z,23.47
2022-12-05T20:38:55.866Z,22.33
2022-12-05T20:41:23.023Z,24.93
2022-12-05T20:43:54.889Z,25.33
2022-12-05T20:46:22.685Z,24.03
2022-12-05T20:48:51.434Z,25.83
2022-12-05T20:51:21.436Z,24.67
2022-12-05T20:53:48.729Z,23.23
2022-12-05T20:56:18.163Z,26.13
2022-12-05T20:58:47.574Z,21.97
2022-12-05T21:01:15.856Z,30.50
2022-12-05T21:03:45.459Z,27.67
2022-12-05T21:06:18.908Z,24.60
2022-12-05T21:08:46.498Z,24.43
2022-12-05T21:11:13.998Z,25.17
2022-12-05T21:13:41.194Z,22.13
2022-12-05T21:16:11.292Z,25.50
2022-12-05T21:18:39.253Z,25.97
2022-12-05T21:21:09.120Z,26.10
2022-12-05T21:23:36.173Z,24.97
2022-12-05T21:26:06.787Z,24.63
2022-12-05T21:28:34.755Z,25.67
2022-12-05T21:31:22.981Z,28.33
2022-12-05T21:33:57.468Z,25.60
2022-12-05T21:36:26.107Z,25.10
2022-12-05T21:38:56.209Z,24.43
2022-12-05T21:41:25.066Z,27.33
2022-12-05T21:43:55.377Z,23.43
2022-12-05T21:46:24.752Z,30.90
2022-12-05T21:48:52.400Z,28.13
2022-12-05T21:51:20.352Z,29.40
2022-12-05T21:53:47.736Z,26.10
2022-12-05T21:56:17.882Z,32.30
2022-12-05T21:58:46.911Z,28.83
2022-12-05T22:01:22.534Z,29.83
2022-12-05T22:03:59.548Z,31.00
2022-12-05T22:06:27.638Z,32.50
2022-12-05T22:08:55.520Z,30.67
2022-12-05T22:11:23.646Z,30.40
2022-12-05T22:13:51.132Z,29.03
2022-12-05T22:16:19.002Z,29.80
2022-12-05T22:18:46.403Z,26.17
2022-12-05T22:21:15.855Z,33.47
2022-12-05T22:23:43.286Z,29.27
2022-12-05T22:26:12.864Z,34.67
2022-12-05T22:28:40.042Z,36.03
2022-12-05T22:31:09.362Z,31.17
2022-12-05T22:33:37.053Z,34.67
2022-12-05T22:36:06.858Z,30.20
2022-12-05T22:38:36.655Z,35.37
2022-12-05T22:41:14.277Z,36.03
2022-12-05T22:43:42.913Z,35.23
2022-12-05T22:46:15.645Z,34.93
2022-12-05T22:48:42.811Z,32.03
2022-12-05T22:51:10.811Z,35.93
2022-12-05T22:53:38.663Z,36.83
2022-12-05T22:56:13.705Z,35.23
2022-12-05T22:58:41.068Z,31.40
2022-12-05T23:01:16.137Z,36.43
2022-12-05T23:03:45.113Z,36.23
2022-12-05T23:06:13.581Z,33.20
2022-12-05T23:08:43.320Z,36.73
2022-12-05T23:11:11.256Z,32.33
2022-12-05T23:13:39.321Z,36.40
2022-12-05T23:16:12.137Z,34.37
2022-12-05T23:18:48.387Z,38.50
2022-12-05T23:21:22.681Z,35.93
2022-12-05T23:23:52.960Z,31.87
2022-12-05T23:26:22.115Z,34.87
2022-12-05T23:28:49.667Z,34.03
2022-12-05T23:31:17.498Z,31.47
2022-12-05T23:33:44.727Z,30.63
2022-12-05T23:36:12.260Z,32.53
2022-12-05T23:38:41.435Z,35.27
2022-12-05T23:41:19.437Z,36.20
2022-12-05T23:43:47.802Z,34.90
2022-12-05T23:46:16.271Z,31.83
2022-12-05T23:48:44.455Z,31.93
2022-12-05T23:51:23.192Z,37.93
2022-12-05T23:54:01.128Z,33.10
2022-12-05T23:56:31.301Z,31.80
2022-12-05T23:58:59.115Z,38.73
